Terminal Aerodrome Forecast
Issued by NWS

Home | Current Version | Previous Version | Text Only | Print | Product List | Glossary On
Versions: 1 2 3 4 5 6 7 8 9 10 11 12 13 14 15 16 17 18 19 20
248
FTUS43 KAPX 091137
TAFMBL
TAF
KMBL 091137Z 0912/1012 34012G18KT P6SM -SHSN OVC013
     FM092000 33013G23KT 2SM -SHSN BLSN OVC012
     FM100300 33014G25KT 1/2SM SHSN BLSN OVC010
     FM100900 33014G25KT 3SM -SHSN BLSN OVC012
      AMD LTD TO CLD VIS AND WIND=

USA.gov is the U.S. government's official web portal to all federal, state and local government web resources and services.